Darstellungsparameter: Aktuell verwendete Einstellungen:
Skalierung der Graphiken ... ?
xyx+y,   Skalierungsfaktor:      Skalierung: Modus: x, Faktor: 1
Darstellungszeitraum ... ?
Vom - - bis: - -   Zeitraum: 07.06.2010 - 13.06.2010
Min/Max/Avg-Anzeige ... ?
Zeige MMA aktuell
Zeige MMA Monat
Zeige MMA alles
Zeige --A aktuell
Zeige --A Monat
Zeige --A alles
Keine MMA-Anzeige
MMA:
Average (ber die Originaldaten)
MMA-Basis: 07.06.2010 - 13.06.2010
Quicknavigation für Darstellung... ?
Tage:      1T, 2T, 3T, 5T -1T -2T -3T -5T +1T +2T +3T +5T
Wochen: 1W, 2W, 3W -1W -2W -3W +1W +2W +3W
Monate: 1M, 3M, 6M -1M -3M -6M +1M +3M +6M
Jahre:    1J, 3J, 5J, 10J -1J -3J -5J -10J +1J +3J +5J +10J
Nutze für die Darstellung ... ?
Originaldaten oder Mittelwerte auf ...
Stundenbasis Tagesbasis Wochenbasis
Monatsbasis Jahresbasis      Datenbasis: Original-Daten
Darstellen als:
Statistik (Auto) Statistik J:M      Darstellung:
Zur Graphik,    zurück zur Übersicht aller Sensoren.
 
Tabellarische Datenbersicht: ?
 
Sensor: Nr:Datum:Temp:Abs-Feuchte:Windchill:Wind:
Aussen-T/F 1 07-06-2010 00:04:02 17.7 C 13.28 g/m*3 17.7 C 0 km/h
2 07-06-2010 00:16:02 17.9 C 13.44 g/m*3 17.9 C 0 km/h
3 07-06-2010 00:28:02 18 C 13.52 g/m*3 18 C 0 km/h
4 07-06-2010 00:40:02 18 C 13.52 g/m*3 18 C 0 km/h
5 07-06-2010 00:52:02 18 C 13.52 g/m*3 18 C 0 km/h
6 07-06-2010 01:04:02 17.9 C 13.74 g/m*3 17.9 C 0 km/h
7 07-06-2010 01:16:02 17.9 C 13.74 g/m*3 17.9 C 0 km/h
8 07-06-2010 01:28:02 17.8 C 13.81 g/m*3 17.8 C 0 km/h
9 07-06-2010 01:40:02 17.7 C 13.73 g/m*3 17.7 C 0 km/h
10 07-06-2010 01:52:02 17.8 C 13.81 g/m*3 17.8 C 0 km/h
11 07-06-2010 02:04:03 17.9 C 13.89 g/m*3 17.9 C 0 km/h
12 07-06-2010 02:16:03 17.9 C 13.89 g/m*3 17.9 C 0 km/h
13 07-06-2010 02:28:03 17.6 C 13.05 g/m*3 17.6 C 0 km/h
14 07-06-2010 02:40:03 17 C 10.85 g/m*3 17 C 0 km/h
15 07-06-2010 02:52:03 16.4 C 10.89 g/m*3 16.4 C 0 km/h
16 07-06-2010 03:04:03 16.2 C 10.62 g/m*3 16.2 C 0 km/h
17 07-06-2010 03:16:03 15.8 C 10.23 g/m*3 15.8 C 0 km/h
18 07-06-2010 03:28:03 15.3 C 10.06 g/m*3 15.3 C 0 km/h
19 07-06-2010 03:40:03 15 C 10 g/m*3 15 C 0 km/h
20 07-06-2010 03:52:03 15 C 9.49 g/m*3 15 C 0 km/h
21 07-06-2010 04:04:03 14.8 C 9.12 g/m*3 14.8 C 0 km/h
22 07-06-2010 04:16:03 14.4 C 9.02 g/m*3 14.4 C 0 km/h
23 07-06-2010 04:28:03 13.9 C 9.11 g/m*3 13.9 C 0 km/h
24 07-06-2010 04:40:03 13.5 C 9.01 g/m*3 13.5 C 0 km/h
25 07-06-2010 04:52:03 13.4 C 9.18 g/m*3 13.4 C 0 km/h
Sensor: Nr:Datum:Temp:Abs-Feuchte:Windchill:Wind:
Aussen-T/F 26 07-06-2010 05:04:03 13.6 C 9.18 g/m*3 13.6 C 0 km/h
27 07-06-2010 05:16:03 13.6 C 9.06 g/m*3 13.6 C 0 km/h
28 07-06-2010 05:28:03 13.6 C 9.06 g/m*3 13.6 C 0 km/h
29 07-06-2010 05:40:03 13.7 C 9.24 g/m*3 13.7 C 0 km/h
30 07-06-2010 05:52:03 13.5 C 9.24 g/m*3 13.5 C 0 km/h
31 07-06-2010 06:04:04 13.7 C 9.47 g/m*3 13.7 C 0 km/h
32 07-06-2010 06:16:04 14.1 C 9.59 g/m*3 14.1 C 0 km/h
33 07-06-2010 06:28:04 14.5 C 9.33 g/m*3 14.5 C 0 km/h
34 07-06-2010 06:40:04 14.8 C 9.12 g/m*3 14.8 C 0 km/h
35 07-06-2010 06:52:04 14.9 C 9.3 g/m*3 14.9 C 0 km/h
36 07-06-2010 07:04:02 15.1 C 9.03 g/m*3 15.1 C 0 km/h
37 07-06-2010 07:16:02 15.3 C 9.14 g/m*3 15.3 C 0 km/h
38 07-06-2010 07:28:02 15 C 8.98 g/m*3 15 C 0 km/h
39 07-06-2010 07:40:18 14.9 C 9.3 g/m*3 14.9 C 0 km/h
40 07-06-2010 07:52:01 14.9 C 9.43 g/m*3 14.9 C 0 km/h
41 07-06-2010 08:04:02 15.2 C 9.35 g/m*3 15.2 C 0 km/h
42 07-06-2010 08:16:02 15.4 C 9.33 g/m*3 15.4 C 0 km/h
43 07-06-2010 08:28:02 15.6 C 9.31 g/m*3 15.6 C 0 km/h
44 07-06-2010 08:40:01 15.7 C 9.37 g/m*3 15.7 C 0 km/h
45 07-06-2010 08:52:03 15.8 C 9.29 g/m*3 15.8 C 0 km/h
46 07-06-2010 09:04:02 16.5 C 9.55 g/m*3 16.5 C 0 km/h
47 07-06-2010 09:16:02 17.2 C 9.23 g/m*3 17.2 C 0 km/h
48 07-06-2010 09:28:03 17.2 C 9.23 g/m*3 17.2 C 0 km/h
49 07-06-2010 09:40:02 17 C 8.97 g/m*3 17 C 0 km/h
50 07-06-2010 09:52:02 17.5 C 9.09 g/m*3 17.5 C 0 km/h
Sensor: Nr:Datum:Temp:Abs-Feuchte:Windchill:Wind:
Aussen-T/F 51 07-06-2010 10:04:01 17.6 C 9.15 g/m*3 17.6 C 0 km/h
52 07-06-2010 10:16:02 18.1 C 8.96 g/m*3 18.1 C 0 km/h
53 07-06-2010 10:28:02 18.3 C 8.76 g/m*3 18.3 C 0 km/h
54 07-06-2010 10:40:02 18.7 C 8.81 g/m*3 18.7 C 0 km/h
55 07-06-2010 10:52:01 18.9 C 9.07 g/m*3 18.9 C 0 km/h
56 07-06-2010 11:04:02 19.5 C 8.89 g/m*3 19.5 C 0 km/h
57 07-06-2010 11:16:01 19.3 C 8.79 g/m*3 19.3 C 0 km/h
58 07-06-2010 11:28:01 19.1 C 8.69 g/m*3 19.1 C 0 km/h
59 07-06-2010 11:40:01 19.5 C 8.73 g/m*3 19.5 C 0 km/h
60 07-06-2010 11:52:02 19.9 C 8.42 g/m*3 19.9 C 0 km/h
61 07-06-2010 12:04:02 20.7 C 8.1 g/m*3 20.7 C 0 km/h
62 07-06-2010 12:16:01 21.6 C 7.97 g/m*3 21.6 C 0 km/h
63 07-06-2010 12:28:01 21.9 C 7.91 g/m*3 21.9 C 0 km/h
64 07-06-2010 12:40:02 22.4 C 7.94 g/m*3 22.4 C 0 km/h
65 07-06-2010 12:52:02 23.1 C 7.65 g/m*3 23.1 C 0 km/h
66 07-06-2010 13:04:02 23.1 C 7.23 g/m*3 23.1 C 0 km/h
67 07-06-2010 13:16:01 24.3 C 7.3 g/m*3 24.3 C 0 km/h
68 07-06-2010 13:28:01 24.3 C 7.75 g/m*3 24.3 C 0 km/h
69 07-06-2010 13:40:02 23.4 C 6.73 g/m*3 23.4 C 0 km/h
70 07-06-2010 13:52:01 23.8 C 7.31 g/m*3 23.8 C 0 km/h
71 07-06-2010 14:04:02 23.9 C 6.92 g/m*3 23.9 C 0 km/h
72 07-06-2010 14:16:02 23.7 C 7.27 g/m*3 23.7 C 0 km/h
73 07-06-2010 14:28:02 24.1 C 6.78 g/m*3 24.1 C 0 km/h
74 07-06-2010 14:40:02 24.1 C 7 g/m*3 24.1 C 0 km/h
75 07-06-2010 14:52:02 24.2 C 6.82 g/m*3 24.2 C 0 km/h
Sensor: Nr:Datum:Temp:Abs-Feuchte:Windchill:Wind:
Aussen-T/F 76 07-06-2010 15:04:01 24.4 C 6.68 g/m*3 24.4 C 0 km/h
77 07-06-2010 15:16:02 24 C 6.74 g/m*3 24 C 0 km/h
78 07-06-2010 15:28:02 24.7 C 6.79 g/m*3 24.7 C 0 km/h
79 07-06-2010 15:40:01 24.7 C 6.34 g/m*3 24.7 C 0 km/h
80 07-06-2010 15:52:02 23.7 C 6.63 g/m*3 23.7 C 0 km/h
81 07-06-2010 16:04:01 24.8 C 6.6 g/m*3 24.8 C 0 km/h
82 07-06-2010 16:16:01 25.3 C 6.55 g/m*3 25.3 C 0 km/h
83 07-06-2010 16:28:01 25.6 C 6.43 g/m*3 25.6 C 0 km/h
84 07-06-2010 16:40:02 25.1 C 6.02 g/m*3 25.1 C 0 km/h
85 07-06-2010 16:52:02 25.3 C 6.32 g/m*3 25.3 C 0 km/h
86 07-06-2010 17:04:01 24.5 C 6.04 g/m*3 24.5 C 0 km/h
87 07-06-2010 17:16:02 24.8 C 6.15 g/m*3 24.8 C 0 km/h
88 07-06-2010 17:28:02 24.3 C 5.97 g/m*3 24.3 C 0 km/h
89 07-06-2010 17:40:02 24.9 C 5.95 g/m*3 24.9 C 0 km/h
90 07-06-2010 17:52:02 24.8 C 5.69 g/m*3 24.8 C 0 km/h
91 07-06-2010 18:04:03 24.5 C 5.6 g/m*3 24.5 C 0 km/h
92 07-06-2010 18:16:02 26.2 C 5.42 g/m*3 26.2 C 0 km/h
93 07-06-2010 18:28:02 25.6 C 5 g/m*3 25.6 C 0 km/h
94 07-06-2010 18:40:02 26.9 C 5.37 g/m*3 26.9 C 0 km/h
95 07-06-2010 18:52:01 26.4 C 4.98 g/m*3 26.4 C 0 km/h
96 07-06-2010 19:04:02 26.6 C 5.29 g/m*3 26.6 C 0 km/h
97 07-06-2010 19:16:01 26 C 5.11 g/m*3 26 C 0 km/h
98 07-06-2010 19:28:01 25.5 C 5.21 g/m*3 25.5 C 0 km/h
99 07-06-2010 19:40:01 25.2 C 5.35 g/m*3 25.2 C 0 km/h
100 07-06-2010 19:52:01 23.9 C 5.41 g/m*3 23.9 C 0 km/h
Sensor: Nr:Datum:Temp:Abs-Feuchte:Windchill:Wind:
Aussen-T/F 101 07-06-2010 20:04:01 24.1 C 5.47 g/m*3 24.1 C 0 km/h
102 07-06-2010 20:16:02 24.1 C 5.69 g/m*3 24.1 C 0 km/h
103 07-06-2010 20:28:02 23.1 C 5.79 g/m*3 23.1 C 0 km/h
104 07-06-2010 20:40:01 22.3 C 6.12 g/m*3 22.3 C 0 km/h
105 07-06-2010 20:52:01 21.8 C 6.72 g/m*3 21.8 C 0 km/h
106 07-06-2010 21:04:01 21 C 6.41 g/m*3 21 C 0 km/h
107 07-06-2010 21:16:02 20.4 C 6.72 g/m*3 20.4 C 0 km/h
108 07-06-2010 21:28:02 19.9 C 6.87 g/m*3 19.9 C 0 km/h
109 07-06-2010 21:40:01 19.4 C 6.84 g/m*3 19.4 C 0 km/h
110 07-06-2010 21:52:03 19.5 C 7.05 g/m*3 19.5 C 0 km/h
111 07-06-2010 22:04:03 18.9 C 6.97 g/m*3 18.9 C 0 km/h
112 07-06-2010 22:16:02 18.8 C 7.25 g/m*3 18.8 C 0 km/h
113 07-06-2010 22:28:02 18.5 C 7.28 g/m*3 18.5 C 0 km/h
114 07-06-2010 22:40:03 18.3 C 7.35 g/m*3 18.3 C 0 km/h
115 07-06-2010 22:53:02 17.9 C 7.79 g/m*3 17.9 C 0 km/h
116 07-06-2010 23:05:02 17.9 C 7.94 g/m*3 17.9 C 0 km/h
117 07-06-2010 23:17:03 17.4 C 7.85 g/m*3 17.4 C 0 km/h
118 07-06-2010 23:29:03 17 C 7.81 g/m*3 17 C 0 km/h
119 07-06-2010 23:41:03 17 C 8.39 g/m*3 17 C 0 km/h
120 07-06-2010 23:53:03 17 C 8.39 g/m*3 17 C 0 km/h
121 08-06-2010 00:05:03 16.8 C 8.58 g/m*3 16.8 C 0 km/h
122 08-06-2010 00:17:03 16.4 C 8.37 g/m*3 16.4 C 0 km/h
123 08-06-2010 00:29:03 16.3 C 8.46 g/m*3 16.3 C 0 km/h
124 08-06-2010 00:41:03 16.2 C 8.55 g/m*3 16.2 C 0 km/h
125 08-06-2010 00:53:03 16 C 8.45 g/m*3 16 C 0 km/h
Sensor: Nr:Datum:Temp:Abs-Feuchte:Windchill:Wind:
Aussen-T/F 126 08-06-2010 01:05:03 15.8 C 8.62 g/m*3 15.8 C 0 km/h
127 08-06-2010 01:17:03 15.6 C 8.51 g/m*3 15.6 C 0 km/h
128 08-06-2010 01:29:03 15 C 8.33 g/m*3 15 C 0 km/h
129 08-06-2010 01:41:03 14.9 C 8.54 g/m*3 14.9 C 0 km/h
130 08-06-2010 01:53:03 14.8 C 8.49 g/m*3 14.8 C 0 km/h
131 08-06-2010 02:05:03 14.7 C 8.44 g/m*3 14.7 C 0 km/h
132 08-06-2010 02:17:03 14.4 C 8.41 g/m*3 14.4 C 0 km/h
133 08-06-2010 02:29:03 14.1 C 8.25 g/m*3 14.1 C 0 km/h
134 08-06-2010 02:41:03 14 C 8.32 g/m*3 14 C 0 km/h
135 08-06-2010 02:53:03 14.1 C 8.37 g/m*3 14.1 C 0 km/h
136 08-06-2010 03:05:03 14.1 C 8.37 g/m*3 14.1 C 0 km/h
137 08-06-2010 03:17:04 14.1 C 8.37 g/m*3 14.1 C 0 km/h
138 08-06-2010 03:29:04 13.9 C 8.39 g/m*3 13.9 C 0 km/h
139 08-06-2010 03:41:04 13.6 C 8.36 g/m*3 13.6 C 0 km/h
140 08-06-2010 03:53:04 13.5 C 8.3 g/m*3 13.5 C 0 km/h
141 08-06-2010 04:05:04 13.4 C 8.25 g/m*3 13.4 C 0 km/h
142 08-06-2010 04:17:04 13 C 8.05 g/m*3 13 C 0 km/h
143 08-06-2010 04:29:04 13.2 C 8.27 g/m*3 13.2 C 0 km/h
144 08-06-2010 04:41:04 13.2 C 8.27 g/m*3 13.2 C 0 km/h
145 08-06-2010 04:53:04 13.2 C 8.27 g/m*3 13.2 C 0 km/h
146 08-06-2010 05:05:04 13.3 C 8.32 g/m*3 13.3 C 0 km/h
147 08-06-2010 05:17:04 13.4 C 8.49 g/m*3 13.4 C 0 km/h
148 08-06-2010 05:29:04 13.6 C 8.47 g/m*3 13.6 C 0 km/h
149 08-06-2010 05:41:04 13.4 C 8.37 g/m*3 13.4 C 0 km/h
150 08-06-2010 05:53:04 13.3 C 8.43 g/m*3 13.3 C 0 km/h
Sensor: Nr:Datum:Temp:Abs-Feuchte:Windchill:Wind:
Aussen-T/F 151 08-06-2010 06:05:04 13.2 C 8.5 g/m*3 13.2 C 0 km/h
152 08-06-2010 06:17:04 13.5 C 8.66 g/m*3 13.5 C 0 km/h
153 08-06-2010 06:29:04 13.9 C 8.75 g/m*3 13.9 C 0 km/h
154 08-06-2010 06:41:04 13.7 C 8.53 g/m*3 13.7 C 0 km/h
155 08-06-2010 06:53:04 14 C 8.68 g/m*3 14 C 0 km/h
156 08-06-2010 07:05:02 13.9 C 8.63 g/m*3 13.9 C 0 km/h
157 08-06-2010 07:17:01 13.9 C 8.75 g/m*3 13.9 C 0 km/h
158 08-06-2010 07:29:01 14.2 C 8.79 g/m*3 14.2 C 0 km/h
159 08-06-2010 07:41:02 14.6 C 8.88 g/m*3 14.6 C 0 km/h
160 08-06-2010 07:53:02 15.2 C 8.96 g/m*3 15.2 C 0 km/h
161 08-06-2010 08:05:02 15.6 C 9.04 g/m*3 15.6 C 0 km/h
162 08-06-2010 08:17:02 16 C 8.86 g/m*3 16 C 0 km/h
163 08-06-2010 08:29:02 16.3 C 8.88 g/m*3 16.3 C 0 km/h
164 08-06-2010 08:41:02 17.2 C 8.93 g/m*3 17.2 C 0 km/h
165 08-06-2010 08:53:02 17.4 C 8.74 g/m*3 17.4 C 0 km/h
166 08-06-2010 09:05:03 18.1 C 8.96 g/m*3 18.1 C 0 km/h
167 08-06-2010 09:17:02 18.6 C 8.91 g/m*3 18.6 C 0 km/h
168 08-06-2010 09:29:02 19.2 C 8.9 g/m*3 19.2 C 0 km/h
169 08-06-2010 09:41:02 19.9 C 9.11 g/m*3 19.9 C 0 km/h
170 08-06-2010 09:53:01 20.1 C 8.87 g/m*3 20.1 C 0 km/h
171 08-06-2010 10:05:02 20.6 C 9.49 g/m*3 20.6 C 0 km/h
172 08-06-2010 10:17:01 21.1 C 8.66 g/m*3 21.1 C 0 km/h
173 08-06-2010 10:29:01 21.8 C 8.25 g/m*3 21.8 C 0 km/h
174 08-06-2010 10:41:02 22.6 C 8.44 g/m*3 22.6 C 0 km/h
175 08-06-2010 10:53:01 23.5 C 8.67 g/m*3 23.5 C 0 km/h
Sensor: Nr:Datum:Temp:Abs-Feuchte:Windchill:Wind:
Aussen-T/F 176 08-06-2010 11:05:02 24.3 C 8.63 g/m*3 24.3 C 0 km/h
177 08-06-2010 11:17:02 24.5 C 8.28 g/m*3 24.5 C 0 km/h
178 08-06-2010 11:29:02 25.3 C 7.96 g/m*3 25.3 C 0 km/h
179 08-06-2010 11:41:01 26.3 C 7.67 g/m*3 26.3 C 0 km/h
180 08-06-2010 11:53:01 26.9 C 7.68 g/m*3 26.9 C 0 km/h
181 08-06-2010 12:05:01 27.2 C 7.81 g/m*3 27.2 C 0 km/h
182 08-06-2010 12:17:02 27 C 7.21 g/m*3 27 C 0 km/h
183 08-06-2010 12:29:02 28.8 C 7.39 g/m*3 28.8 C 0 km/h
184 08-06-2010 12:41:01 28.4 C 6.67 g/m*3 28.4 C 0 km/h
185 08-06-2010 12:53:02 28.2 C 6.87 g/m*3 28.2 C 0 km/h
186 08-06-2010 13:05:01 28 C 7.07 g/m*3 28 C 0 km/h
187 08-06-2010 13:17:02 28.6 C 6.46 g/m*3 28.6 C 0 km/h
188 08-06-2010 13:29:02 27.6 C 6.65 g/m*3 27.6 C 0 km/h
189 08-06-2010 13:41:01 26.7 C 6.58 g/m*3 26.7 C 0 km/h
190 08-06-2010 13:53:02 27 C 6.95 g/m*3 27 C 0 km/h
191 08-06-2010 14:05:02 26.5 C 7.51 g/m*3 26.5 C 0 km/h
192 08-06-2010 14:17:02 26.2 C 7.88 g/m*3 26.2 C 0 km/h
193 08-06-2010 14:29:02 25.7 C 8.38 g/m*3 25.7 C 0 km/h
194 08-06-2010 14:41:02 26.3 C 8.66 g/m*3 26.3 C 0 km/h
195 08-06-2010 14:53:02 26.7 C 8.61 g/m*3 26.7 C 0 km/h
196 08-06-2010 15:05:01 26.9 C 8.96 g/m*3 26.9 C 0 km/h
197 08-06-2010 15:17:02 26.6 C 8.31 g/m*3 26.6 C 0 km/h
198 08-06-2010 15:29:02 26.5 C 8.01 g/m*3 26.5 C 0 km/h
199 08-06-2010 15:41:01 25.6 C 8.33 g/m*3 25.6 C 0 km/h
200 08-06-2010 15:53:02 26.2 C 8.37 g/m*3 26.2 C 0 km/h
Sensor: Nr:Datum:Temp:Abs-Feuchte:Windchill:Wind:
Aussen-T/F 201 08-06-2010 16:05:02 25.3 C 7.73 g/m*3 25.3 C 0 km/h
202 08-06-2010 16:17:02 23.7 C 7.91 g/m*3 23.7 C 0 km/h
203 08-06-2010 16:29:02 22.1 C 8.39 g/m*3 22.1 C 0 km/h
204 08-06-2010 16:41:01 21.7 C 8.39 g/m*3 21.7 C 0 km/h
205 08-06-2010 16:53:02 20.3 C 9.5 g/m*3 20.3 C 0 km/h
206 08-06-2010 17:05:02 20.2 C 11.19 g/m*3 20.2 C 0 km/h
207 08-06-2010 17:17:02 20.6 C 11.1 g/m*3 20.6 C 0 km/h
208 08-06-2010 17:29:02 20.9 C 10.38 g/m*3 20.9 C 0 km/h
209 08-06-2010 17:41:02 21.1 C 9.77 g/m*3 21.1 C 0 km/h
210 08-06-2010 17:53:02 21.4 C 9.94 g/m*3 21.4 C 0 km/h
211 08-06-2010 18:05:03 21.9 C 10.61 g/m*3 21.9 C 0 km/h
212 08-06-2010 18:17:03 22.6 C 9.84 g/m*3 22.6 C 0 km/h
213 08-06-2010 18:29:03 23.1 C 10.13 g/m*3 23.1 C 0 km/h
214 08-06-2010 18:41:03 23.8 C 9.9 g/m*3 23.8 C 0 km/h
215 08-06-2010 18:53:03 23.9 C 10.17 g/m*3 23.9 C 0 km/h
216 08-06-2010 19:05:03 23.7 C 10.69 g/m*3 23.7 C 0 km/h
217 08-06-2010 19:17:02 23.6 C 10.42 g/m*3 23.6 C 0 km/h
218 08-06-2010 19:29:02 23.2 C 9.77 g/m*3 23.2 C 0 km/h
219 08-06-2010 19:41:02 22.9 C 9.81 g/m*3 22.9 C 0 km/h
220 08-06-2010 19:53:02 22.6 C 10.04 g/m*3 22.6 C 0 km/h
221 08-06-2010 20:05:02 22.5 C 10.19 g/m*3 22.5 C 0 km/h
222 08-06-2010 20:17:02 22.3 C 10.27 g/m*3 22.3 C 0 km/h
223 08-06-2010 20:29:02 22 C 10.67 g/m*3 22 C 0 km/h
224 08-06-2010 20:41:02 21.7 C 10.49 g/m*3 21.7 C 0 km/h
225 08-06-2010 20:53:02 21.5 C 10.56 g/m*3 21.5 C 0 km/h
Sensor: Nr:Datum:Temp:Abs-Feuchte:Windchill:Wind:
Aussen-T/F 226 08-06-2010 21:05:03 21.3 C 10.44 g/m*3 21.3 C 0 km/h
227 08-06-2010 21:17:02 21 C 10.62 g/m*3 21 C 0 km/h
228 08-06-2010 21:29:02 20.8 C 10.86 g/m*3 20.8 C 0 km/h
229 08-06-2010 21:41:02 20.4 C 10.79 g/m*3 20.4 C 0 km/h
230 08-06-2010 21:53:02 19.5 C 11.41 g/m*3 19.5 C 0 km/h
231 08-06-2010 22:06:41 19 C 11.9 g/m*3 19 C 0 km/h
232 08-06-2010 22:18:41 18.8 C 12.4 g/m*3 18.8 C 0 km/h
233 08-06-2010 22:30:41 18.5 C 12.34 g/m*3 18.5 C 0 km/h
234 08-06-2010 22:42:41 18.3 C 12.35 g/m*3 18.3 C 0 km/h
235 08-06-2010 22:54:42 18.2 C 12.43 g/m*3 18.2 C 0 km/h
236 08-06-2010 23:06:42 18.1 C 12.52 g/m*3 18.1 C 0 km/h
237 08-06-2010 23:18:42 18.2 C 12.59 g/m*3 18.2 C 0 km/h
238 08-06-2010 23:30:42 18.1 C 12.52 g/m*3 18.1 C 0 km/h
239 08-06-2010 23:42:42 18.1 C 12.36 g/m*3 18.1 C 0 km/h
240 08-06-2010 23:54:42 17.9 C 12.52 g/m*3 17.9 C 0 km/h
241 09-06-2010 00:06:42 17.8 C 12.6 g/m*3 17.8 C 0 km/h
242 09-06-2010 00:18:42 17.8 C 12.6 g/m*3 17.8 C 0 km/h
243 09-06-2010 00:30:42 17.7 C 12.52 g/m*3 17.7 C 0 km/h
244 09-06-2010 00:42:42 17.7 C 12.52 g/m*3 17.7 C 0 km/h
245 09-06-2010 00:54:42 17.7 C 12.52 g/m*3 17.7 C 0 km/h
246 09-06-2010 01:06:42 17.7 C 12.52 g/m*3 17.7 C 0 km/h
247 09-06-2010 01:18:42 17.6 C 12.45 g/m*3 17.6 C 0 km/h
248 09-06-2010 01:30:42 17.7 C 12.52 g/m*3 17.7 C 0 km/h
249 09-06-2010 01:42:42 17.7 C 12.22 g/m*3 17.7 C 0 km/h
250 09-06-2010 01:54:42 17.7 C 11.92 g/m*3 17.7 C 0 km/h
Sensor: Nr:Datum:Temp:Abs-Feuchte:Windchill:Wind:
Aussen-T/F 251 09-06-2010 02:06:42 17.3 C 11.64 g/m*3 17.3 C 0 km/h
252 09-06-2010 02:18:42 17.1 C 11.79 g/m*3 17.1 C 0 km/h
253 09-06-2010 02:30:42 16.9 C 11.79 g/m*3 16.9 C 0 km/h
254 09-06-2010 02:42:42 17 C 12.01 g/m*3 17 C 0 km/h
255 09-06-2010 02:54:42 17.1 C 12.08 g/m*3 17.1 C 0 km/h
256 09-06-2010 03:06:43 17.1 C 12.08 g/m*3 17.1 C 0 km/h
257 09-06-2010 03:18:43 17.1 C 12.08 g/m*3 17.1 C 0 km/h
258 09-06-2010 03:30:43 17 C 12.15 g/m*3 17 C 0 km/h
259 09-06-2010 03:42:43 17.1 C 12.08 g/m*3 17.1 C 0 km/h
260 09-06-2010 03:54:43 17 C 12.01 g/m*3 17 C 0 km/h
261 09-06-2010 04:06:43 17 C 12.15 g/m*3 17 C 0 km/h
262 09-06-2010 04:18:43 17 C 12.01 g/m*3 17 C 0 km/h
263 09-06-2010 04:30:43 16.9 C 12.08 g/m*3 16.9 C 0 km/h
264 09-06-2010 04:42:43 17 C 12.01 g/m*3 17 C 0 km/h
265 09-06-2010 04:54:43 16.9 C 12.08 g/m*3 16.9 C 0 km/h
266 09-06-2010 05:06:43 16.9 C 12.08 g/m*3 16.9 C 0 km/h
267 09-06-2010 05:18:43 16.8 C 12.01 g/m*3 16.8 C 0 km/h
268 09-06-2010 05:30:43 16.8 C 12.01 g/m*3 16.8 C 0 km/h
269 09-06-2010 05:42:43 16.8 C 12.01 g/m*3 16.8 C 0 km/h
270 09-06-2010 05:54:43 16.9 C 11.94 g/m*3 16.9 C 0 km/h
271 09-06-2010 06:06:43 16.9 C 11.94 g/m*3 16.9 C 0 km/h
272 09-06-2010 06:18:43 16.9 C 11.94 g/m*3 16.9 C 0 km/h
273 09-06-2010 06:30:43 17 C 11.87 g/m*3 17 C 0 km/h
274 09-06-2010 06:42:43 17.2 C 12.01 g/m*3 17.2 C 0 km/h
275 09-06-2010 06:54:01 17.3 C 12.08 g/m*3 17.3 C 0 km/h
Sensor: Nr:Datum:Temp:Abs-Feuchte:Windchill:Wind:
Aussen-T/F 276 09-06-2010 07:06:02 17.8 C 12.45 g/m*3 17.8 C 0 km/h
277 09-06-2010 07:18:01 17.9 C 12.21 g/m*3 17.9 C 0 km/h
278 09-06-2010 07:30:01 18.1 C 12.05 g/m*3 18.1 C 0 km/h
279 09-06-2010 07:42:02 18.4 C 12.11 g/m*3 18.4 C 0 km/h
280 09-06-2010 07:54:02 18.8 C 12.4 g/m*3 18.8 C 0 km/h
281 09-06-2010 08:06:02 19 C 12.06 g/m*3 19 C 0 km/h
282 09-06-2010 08:18:02 19.6 C 12.49 g/m*3 19.6 C 0 km/h
283 09-06-2010 08:30:02 19.9 C 12.37 g/m*3 19.9 C 0 km/h
284 09-06-2010 08:42:02 20.4 C 12.56 g/m*3 20.4 C 0 km/h
285 09-06-2010 08:54:02 20.8 C 12.13 g/m*3 20.8 C 0 km/h
286 09-06-2010 09:06:03 20.9 C 12.02 g/m*3 20.9 C 0 km/h
287 09-06-2010 09:18:02 21.6 C 11.95 g/m*3 21.6 C 0 km/h
288 09-06-2010 09:30:02 21.7 C 11.83 g/m*3 21.7 C 0 km/h
289 09-06-2010 09:42:01 22.3 C 11.65 g/m*3 22.3 C 0 km/h
290 09-06-2010 09:54:02 22.5 C 11.78 g/m*3 22.5 C 0 km/h
291 09-06-2010 10:06:01 23.3 C 11.5 g/m*3 23.3 C 0 km/h
292 09-06-2010 10:18:02 23 C 11.72 g/m*3 23 C 0 km/h
293 09-06-2010 10:30:02 23.3 C 11.5 g/m*3 23.3 C 0 km/h
294 09-06-2010 10:42:02 24.2 C 11.44 g/m*3 24.2 C 0 km/h
295 09-06-2010 10:54:02 24.8 C 10.93 g/m*3 24.8 C 0 km/h
296 09-06-2010 11:06:02 25.5 C 10.65 g/m*3 25.5 C 0 km/h
297 09-06-2010 11:18:02 25.7 C 10.53 g/m*3 25.7 C 0 km/h
298 09-06-2010 11:30:02 24.8 C 10.24 g/m*3 24.8 C 0 km/h
299 09-06-2010 11:42:02 25.5 C 9.94 g/m*3 25.5 C 0 km/h
300 09-06-2010 11:54:02 26.3 C 9.41 g/m*3 26.3 C 0 km/h
Sensor: Nr:Datum:Temp:Abs-Feuchte:Windchill:Wind:
Aussen-T/F 301 09-06-2010 12:06:01 26.8 C 9.16 g/m*3 26.8 C 0 km/h
302 09-06-2010 12:18:01 26.1 C 8.57 g/m*3 26.1 C 0 km/h
303 09-06-2010 12:30:01 26.3 C 8.91 g/m*3 26.3 C 0 km/h
304 09-06-2010 12:42:02 26.7 C 9.11 g/m*3 26.7 C 0 km/h
305 09-06-2010 12:54:02 26.1 C 8.81 g/m*3 26.1 C 0 km/h
306 09-06-2010 13:06:02 26.3 C 8.66 g/m*3 26.3 C 0 km/h
307 09-06-2010 13:18:02 26.6 C 9.06 g/m*3 26.6 C 0 km/h
308 09-06-2010 13:30:02 26.3 C 8.91 g/m*3 26.3 C 0 km/h
309 09-06-2010 13:42:02 26.9 C 9.47 g/m*3 26.9 C 0 km/h
310 09-06-2010 13:54:02 27.5 C 8.73 g/m*3 27.5 C 0 km/h
311 09-06-2010 14:06:02 27.9 C 8.92 g/m*3 27.9 C 0 km/h
312 09-06-2010 14:18:02 28.4 C 9.45 g/m*3 28.4 C 0 km/h
313 09-06-2010 14:30:02 29.1 C 9.24 g/m*3 29.1 C 0 km/h
314 09-06-2010 14:42:02 29.1 C 8.95 g/m*3 29.1 C 0 km/h
315 09-06-2010 14:54:02 29.2 C 9 g/m*3 29.2 C 0 km/h
316 09-06-2010 15:06:02 28.6 C 8.71 g/m*3 28.6 C 0 km/h
317 09-06-2010 15:18:03 29.7 C 8.95 g/m*3 29.7 C 0 km/h
318 09-06-2010 15:30:03 30 C 7.88 g/m*3 30 C 0 km/h
319 09-06-2010 15:42:02 29.7 C 7.76 g/m*3 29.7 C 0 km/h
320 09-06-2010 15:54:02 29.7 C 7.46 g/m*3 29.7 C 0 km/h
321 09-06-2010 16:06:02 29.8 C 7.5 g/m*3 29.8 C 0 km/h
322 09-06-2010 16:18:02 29.3 C 7.59 g/m*3 29.3 C 0 km/h
323 09-06-2010 16:30:02 29 C 7.18 g/m*3 29 C 0 km/h
324 09-06-2010 16:42:02 29.2 C 7.26 g/m*3 29.2 C 0 km/h
325 09-06-2010 16:54:02 29.4 C 8.22 g/m*3 29.4 C 0 km/h
Sensor: Nr:Datum:Temp:Abs-Feuchte:Windchill:Wind:
Aussen-T/F 326 09-06-2010 17:06:02 28.7 C 9.04 g/m*3 28.7 C 0 km/h
327 09-06-2010 17:18:03 28.4 C 8.62 g/m*3 28.4 C 0 km/h
328 09-06-2010 17:30:03 27.7 C 9.36 g/m*3 27.7 C 0 km/h
329 09-06-2010 17:42:01 27.3 C 9.16 g/m*3 27.3 C 0 km/h
330 09-06-2010 17:54:02 27.2 C 9.63 g/m*3 27.2 C 0 km/h
331 09-06-2010 18:06:01 27 C 9.26 g/m*3 27 C 0 km/h
332 09-06-2010 18:18:02 27 C 9.01 g/m*3 27 C 0 km/h
333 09-06-2010 18:30:03 26.9 C 9.47 g/m*3 26.9 C 0 km/h
334 09-06-2010 18:42:01 26.3 C 8.91 g/m*3 26.3 C 0 km/h
335 09-06-2010 18:54:02 26.3 C 9.65 g/m*3 26.3 C 0 km/h
336 09-06-2010 19:06:02 26.6 C 9.57 g/m*3 26.6 C 0 km/h
337 09-06-2010 19:18:02 26.5 C 10.01 g/m*3 26.5 C 0 km/h
338 09-06-2010 19:30:02 26.2 C 9.6 g/m*3 26.2 C 0 km/h
339 09-06-2010 19:42:03 25.9 C 9.68 g/m*3 25.9 C 0 km/h
340 09-06-2010 19:54:02 25.6 C 9.76 g/m*3 25.6 C 0 km/h
341 09-06-2010 20:06:01 25.3 C 9.6 g/m*3 25.3 C 0 km/h
342 09-06-2010 20:18:02 25.3 C 9.83 g/m*3 25.3 C 0 km/h
343 09-06-2010 20:30:02 24.8 C 9.56 g/m*3 24.8 C 0 km/h
344 09-06-2010 20:42:02 24.4 C 9.12 g/m*3 24.4 C 0 km/h
345 09-06-2010 20:54:02 24.1 C 8.97 g/m*3 24.1 C 0 km/h
346 09-06-2010 21:06:03 23.8 C 9.25 g/m*3 23.8 C 0 km/h
347 09-06-2010 21:18:02 23.6 C 8.93 g/m*3 23.6 C 0 km/h
348 09-06-2010 21:30:02 23.3 C 9.2 g/m*3 23.3 C 0 km/h
349 09-06-2010 21:42:02 23.2 C 9.15 g/m*3 23.2 C 0 km/h
350 09-06-2010 21:54:01 23.1 C 9.51 g/m*3 23.1 C 0 km/h
Sensor: Nr:Datum:Temp:Abs-Feuchte:Windchill:Wind:
Aussen-T/F 351 09-06-2010 22:06:01 23 C 8.84 g/m*3 23 C 0 km/h
352 09-06-2010 22:19:03 23.1 C 8.48 g/m*3 23.1 C 0 km/h
353 09-06-2010 22:31:03 23.2 C 8.32 g/m*3 23.2 C 0 km/h
354 09-06-2010 22:43:03 23.1 C 8.48 g/m*3 23.1 C 0 km/h
355 09-06-2010 22:55:03 22.4 C 8.94 g/m*3 22.4 C 0 km/h
356 09-06-2010 23:07:03 19.8 C 12.13 g/m*3 19.8 C 0 km/h
357 09-06-2010 23:19:03 19.6 C 12.66 g/m*3 19.6 C 0 km/h
358 09-06-2010 23:31:03 19.4 C 12.51 g/m*3 19.4 C 0 km/h
359 09-06-2010 23:43:03 19 C 12.22 g/m*3 19 C 0 km/h
360 09-06-2010 23:55:03 18.5 C 12.97 g/m*3 18.5 C 0 km/h
361 10-06-2010 00:07:03 18.4 C 13.21 g/m*3 18.4 C 0 km/h
362 10-06-2010 00:19:03 18.1 C 13.29 g/m*3 18.1 C 0 km/h
363 10-06-2010 00:31:03 18 C 13.36 g/m*3 18 C 0 km/h
364 10-06-2010 00:43:03 17.8 C 13.36 g/m*3 17.8 C 0 km/h
365 10-06-2010 00:55:04 17.9 C 13.59 g/m*3 17.9 C 0 km/h
366 10-06-2010 01:07:04 17.8 C 13.66 g/m*3 17.8 C 0 km/h
367 10-06-2010 01:19:04 17.6 C 13.5 g/m*3 17.6 C 0 km/h
368 10-06-2010 01:31:04 17.7 C 13.73 g/m*3 17.7 C 0 km/h
369 10-06-2010 01:43:04 17.5 C 13.57 g/m*3 17.5 C 0 km/h
370 10-06-2010 01:55:04 17.4 C 13.49 g/m*3 17.4 C 0 km/h
371 10-06-2010 02:07:04 17.5 C 13.72 g/m*3 17.5 C 0 km/h
372 10-06-2010 02:19:04 17.4 C 13.63 g/m*3 17.4 C 0 km/h
373 10-06-2010 02:31:04 17.1 C 13.39 g/m*3 17.1 C 0 km/h
374 10-06-2010 02:43:04 17 C 13.17 g/m*3 17 C 0 km/h
375 10-06-2010 02:55:04 16.9 C 13.23 g/m*3 16.9 C 0 km/h
Sensor: Nr:Datum:Temp:Abs-Feuchte:Windchill:Wind:
Aussen-T/F 376 10-06-2010 03:07:04 16.9 C 13.23 g/m*3 16.9 C 0 km/h
377 10-06-2010 03:19:04 16.9 C 13.23 g/m*3 16.9 C 0 km/h
378 10-06-2010 03:31:04 17 C 13.17 g/m*3 17 C 0 km/h
379 10-06-2010 03:43:04 17.1 C 13.25 g/m*3 17.1 C 0 km/h
380 10-06-2010 03:55:04 17 C 13.17 g/m*3 17 C 0 km/h
381 10-06-2010 04:07:04 17 C 13.02 g/m*3 17 C 0 km/h
382 10-06-2010 04:19:04 17.1 C 13.25 g/m*3 17.1 C 0 km/h
383 10-06-2010 04:31:04 17.1 C 13.1 g/m*3 17.1 C 0 km/h
384 10-06-2010 04:43:04 17.1 C 13.1 g/m*3 17.1 C 0 km/h
385 10-06-2010 04:55:04 17 C 13.02 g/m*3 17 C 0 km/h
386 10-06-2010 05:07:05 16.8 C 13.01 g/m*3 16.8 C 0 km/h
387 10-06-2010 05:19:05 16.9 C 13.23 g/m*3 16.9 C 0 km/h
388 10-06-2010 05:31:05 16.8 C 13.15 g/m*3 16.8 C 0 km/h
389 10-06-2010 05:43:05 16.9 C 13.23 g/m*3 16.9 C 0 km/h
390 10-06-2010 05:55:05 17 C 13.17 g/m*3 17 C 0 km/h
391 10-06-2010 06:07:05 17.1 C 13.39 g/m*3 17.1 C 0 km/h
392 10-06-2010 06:19:05 17.1 C 13.39 g/m*3 17.1 C 0 km/h
393 10-06-2010 06:31:05 17.2 C 13.47 g/m*3 17.2 C 0 km/h
394 10-06-2010 06:43:05 17.4 C 13.63 g/m*3 17.4 C 0 km/h
395 10-06-2010 06:55:05 17.6 C 13.8 g/m*3 17.6 C 0 km/h
396 10-06-2010 07:07:05 17.7 C 13.88 g/m*3 17.7 C 0 km/h
397 10-06-2010 07:19:05 17.8 C 13.81 g/m*3 17.8 C 0 km/h
398 10-06-2010 07:31:05 17.9 C 13.89 g/m*3 17.9 C 0 km/h
399 10-06-2010 07:43:05 18 C 13.82 g/m*3 18 C 0 km/h
400 10-06-2010 07:55:02 18.1 C 13.91 g/m*3 18.1 C 0 km/h
Sensor: Nr:Datum:Temp:Abs-Feuchte:Windchill:Wind:
Aussen-T/F 401 10-06-2010 08:07:02 18.7 C 14.41 g/m*3 18.7 C 0 km/h
402 10-06-2010 08:19:03 19 C 14.5 g/m*3 19 C 0 km/h
403 10-06-2010 08:31:02 19 C 14.34 g/m*3 19 C 0 km/h
404 10-06-2010 08:43:02 19 C 14.18 g/m*3 19 C 0 km/h
405 10-06-2010 08:55:02 19.1 C 14.26 g/m*3 19.1 C 0 km/h
406 10-06-2010 09:07:02 19.2 C 14.18 g/m*3 19.2 C 0 km/h
407 10-06-2010 09:19:02 19.4 C 14.18 g/m*3 19.4 C 0 km/h
408 10-06-2010 09:31:02 19.5 C 14.27 g/m*3 19.5 C 0 km/h
409 10-06-2010 09:43:02 19.2 C 14.02 g/m*3 19.2 C 0 km/h
410 10-06-2010 09:55:02 20 C 14.69 g/m*3 20 C 0 km/h
411 10-06-2010 10:07:02 20.7 C 14.76 g/m*3 20.7 C 0 km/h
412 10-06-2010 10:19:02 21.2 C 14.08 g/m*3 21.2 C 0 km/h
413 10-06-2010 10:31:01 21.9 C 13.89 g/m*3 21.9 C 0 km/h
414 10-06-2010 10:43:01 21.5 C 12.82 g/m*3 21.5 C 0 km/h
415 10-06-2010 10:55:02 21.4 C 12.94 g/m*3 21.4 C 0 km/h
416 10-06-2010 11:07:01 21.6 C 13.09 g/m*3 21.6 C 0 km/h
417 10-06-2010 11:19:02 21.9 C 12.93 g/m*3 21.9 C 0 km/h
418 10-06-2010 11:31:02 22.1 C 13.08 g/m*3 22.1 C 0 km/h
419 10-06-2010 11:43:02 22.3 C 12.24 g/m*3 22.3 C 0 km/h
420 10-06-2010 11:55:02 22.7 C 12.73 g/m*3 22.7 C 0 km/h
421 10-06-2010 12:07:03 23.1 C 12.4 g/m*3 23.1 C 0 km/h
422 10-06-2010 12:19:02 24.6 C 12.15 g/m*3 24.6 C 0 km/h
423 10-06-2010 12:31:02 24.9 C 10.99 g/m*3 24.9 C 0 km/h
424 10-06-2010 12:43:02 26.1 C 10.53 g/m*3 26.1 C 0 km/h
425 10-06-2010 12:55:01 26.1 C 10.28 g/m*3 26.1 C 0 km/h
Sensor: Nr:Datum:Temp:Abs-Feuchte:Windchill:Wind:
Aussen-T/F 426 10-06-2010 13:07:02 25.7 C 11.01 g/m*3 25.7 C 0 km/h
427 10-06-2010 13:19:01 25.9 C 10.89 g/m*3 25.9 C 0 km/h
428 10-06-2010 13:31:01 26.9 C 10.49 g/m*3 26.9 C 0 km/h
429 10-06-2010 13:43:01 29.3 C 10.51 g/m*3 29.3 C 0 km/h
430 10-06-2010 13:55:01 28.5 C 10.62 g/m*3 28.5 C 0 km/h
431 10-06-2010 14:07:02 28.5 C 11.18 g/m*3 28.5 C 0 km/h
432 10-06-2010 14:19:01 29.1 C 10.97 g/m*3 29.1 C 0 km/h
433 10-06-2010 14:31:02 28.1 C 11.48 g/m*3 28.1 C 0 km/h
434 10-06-2010 14:43:02 27 C 12.87 g/m*3 27 C 0 km/h
435 10-06-2010 14:55:01 26.6 C 13.59 g/m*3 26.6 C 0 km/h
436 10-06-2010 15:07:02 28.3 C 12.16 g/m*3 28.3 C 0 km/h
437 10-06-2010 15:19:02 28.9 C 11.43 g/m*3 28.9 C 0 km/h
438 10-06-2010 15:31:01 28.9 C 11.43 g/m*3 28.9 C 0 km/h
439 10-06-2010 15:43:01 28 C 11.97 g/m*3 28 C 0 km/h
440 10-06-2010 15:55:02 27.4 C 12.1 g/m*3 27.4 C 0 km/h
441 10-06-2010 16:07:01 26.8 C 13.24 g/m*3 26.8 C 0 km/h
442 10-06-2010 16:19:02 26.1 C 13.22 g/m*3 26.1 C 0 km/h
443 10-06-2010 16:31:01 26.1 C 13.71 g/m*3 26.1 C 0 km/h
444 10-06-2010 16:43:01 27.2 C 13.27 g/m*3 27.2 C 0 km/h
445 10-06-2010 16:55:02 27.8 C 12.64 g/m*3 27.8 C 0 km/h
446 10-06-2010 17:07:02 28.3 C 12.99 g/m*3 28.3 C 0 km/h
447 10-06-2010 17:19:02 27.8 C 13.45 g/m*3 27.8 C 0 km/h
448 10-06-2010 17:31:02 29 C 12.35 g/m*3 29 C 0 km/h
449 10-06-2010 17:43:02 29.1 C 13 g/m*3 29.1 C 0 km/h
450 10-06-2010 17:55:02 30.5 C 11.53 g/m*3 30.5 C 0 km/h
Sensor: Nr:Datum:Temp:Abs-Feuchte:Windchill:Wind:
Aussen-T/F 451 10-06-2010 18:07:02 30.4 C 11.47 g/m*3 30.4 C 0 km/h
452 10-06-2010 18:19:02 30.4 C 11.16 g/m*3 30.4 C 0 km/h
453 10-06-2010 18:31:02 31.2 C 10.35 g/m*3 31.2 C 0 km/h
454 10-06-2010 18:43:02 31.3 C 11.06 g/m*3 31.3 C 0 km/h
455 10-06-2010 18:55:02 31.2 C 11 g/m*3 31.2 C 0 km/h
456 10-06-2010 19:07:02 31.7 C 11.3 g/m*3 31.7 C 0 km/h
457 10-06-2010 19:19:02 31.7 C 10.3 g/m*3 31.7 C 0 km/h
458 10-06-2010 19:31:02 31.3 C 11.71 g/m*3 31.3 C 0 km/h
459 10-06-2010 19:43:02 31.1 C 12.23 g/m*3 31.1 C 0 km/h
460 10-06-2010 19:55:01 30.4 C 13.01 g/m*3 30.4 C 0 km/h
461 10-06-2010 20:07:02 29.6 C 13.35 g/m*3 29.6 C 0 km/h
462 10-06-2010 20:19:02 29.1 C 13.57 g/m*3 29.1 C 0 km/h
463 10-06-2010 20:31:01 28.2 C 14.02 g/m*3 28.2 C 0 km/h
464 10-06-2010 20:43:01 27.2 C 14.31 g/m*3 27.2 C 0 km/h
465 10-06-2010 20:55:02 26.3 C 14.11 g/m*3 26.3 C 0 km/h
466 10-06-2010 21:07:01 25.7 C 14.13 g/m*3 25.7 C 0 km/h
467 10-06-2010 21:19:02 25.2 C 13.04 g/m*3 25.2 C 0 km/h
468 10-06-2010 21:31:01 25 C 12.66 g/m*3 25 C 0 km/h
469 10-06-2010 21:43:01 24.5 C 12.09 g/m*3 24.5 C 0 km/h
470 10-06-2010 21:55:02 24.4 C 12.24 g/m*3 24.4 C 0 km/h
471 10-06-2010 22:07:02 24.5 C 12.09 g/m*3 24.5 C 0 km/h
472 10-06-2010 22:19:01 24.4 C 12.02 g/m*3 24.4 C 0 km/h
473 10-06-2010 22:31:02 24.3 C 12.17 g/m*3 24.3 C 0 km/h
474 10-06-2010 22:43:02 24.1 C 12.25 g/m*3 24.1 C 0 km/h
475 10-06-2010 22:55:27 23.9 C 12.11 g/m*3 23.9 C 0 km/h
Sensor: Nr:Datum:Temp:Abs-Feuchte:Windchill:Wind:
Aussen-T/F 476 10-06-2010 23:07:27 23.7 C 12.19 g/m*3 23.7 C 0 km/h
477 10-06-2010 23:19:27 23.4 C 11.14 g/m*3 23.4 C 0 km/h
478 10-06-2010 23:31:27 22.1 C 10.74 g/m*3 22.1 C 0 km/h
479 10-06-2010 23:43:27 21.1 C 11.06 g/m*3 21.1 C 0 km/h
480 10-06-2010 23:55:27 19.7 C 12.06 g/m*3 19.7 C 0 km/h
481 11-06-2010 00:07:27 19.4 C 11.85 g/m*3 19.4 C 0 km/h
482 11-06-2010 00:19:27 20 C 11.41 g/m*3 20 C 0 km/h
483 11-06-2010 00:31:27 18.8 C 12.24 g/m*3 18.8 C 0 km/h
484 11-06-2010 00:43:27 18.3 C 12.66 g/m*3 18.3 C 0 km/h
485 11-06-2010 00:55:27 17.9 C 12.98 g/m*3 17.9 C 0 km/h
486 11-06-2010 01:07:28 17.7 C 13.13 g/m*3 17.7 C 0 km/h
487 11-06-2010 01:19:28 17.8 C 13.36 g/m*3 17.8 C 0 km/h
488 11-06-2010 01:31:28 17.8 C 13.51 g/m*3 17.8 C 0 km/h
489 11-06-2010 01:43:28 17.9 C 13.74 g/m*3 17.9 C 0 km/h
490 11-06-2010 01:55:28 18 C 13.82 g/m*3 18 C 0 km/h
491 11-06-2010 02:07:28 17.5 C 13.57 g/m*3 17.5 C 0 km/h
492 11-06-2010 02:19:28 17.5 C 13.57 g/m*3 17.5 C 0 km/h
493 11-06-2010 02:31:28 17.6 C 13.8 g/m*3 17.6 C 0 km/h
494 11-06-2010 02:43:28 17.7 C 13.88 g/m*3 17.7 C 0 km/h
495 11-06-2010 02:55:28 17.6 C 13.8 g/m*3 17.6 C 0 km/h
496 11-06-2010 03:07:28 17.4 C 13.63 g/m*3 17.4 C 0 km/h
497 11-06-2010 03:19:28 17.3 C 13.7 g/m*3 17.3 C 0 km/h
498 11-06-2010 03:31:28 17.5 C 13.87 g/m*3 17.5 C 0 km/h
499 11-06-2010 03:43:28 17.5 C 13.87 g/m*3 17.5 C 0 km/h
500 11-06-2010 03:55:28 17.3 C 13.7 g/m*3 17.3 C 0 km/h
Sensor: Nr:Datum:Temp:Abs-Feuchte:Windchill:Wind:
Aussen-T/F 501 11-06-2010 04:07:28 17.1 C 13.54 g/m*3 17.1 C 0 km/h
502 11-06-2010 04:19:28 17.1 C 13.54 g/m*3 17.1 C 0 km/h
503 11-06-2010 04:31:28 17.2 C 13.62 g/m*3 17.2 C 0 km/h
504 11-06-2010 04:43:28 17 C 13.46 g/m*3 17 C 0 km/h
505 11-06-2010 04:55:28 17.1 C 13.54 g/m*3 17.1 C 0 km/h
506 11-06-2010 05:07:28 17.1 C 13.54 g/m*3 17.1 C 0 km/h
507 11-06-2010 05:19:28 17 C 13.6 g/m*3 17 C 0 km/h
508 11-06-2010 05:31:29 16.9 C 13.52 g/m*3 16.9 C 0 km/h
509 11-06-2010 05:43:29 17 C 13.6 g/m*3 17 C 0 km/h
510 11-06-2010 05:55:29 17 C 13.6 g/m*3 17 C 0 km/h
511 11-06-2010 06:07:29 17 C 13.6 g/m*3 17 C 0 km/h
512 11-06-2010 06:19:29 17 C 13.6 g/m*3 17 C 0 km/h
513 11-06-2010 06:31:29 17 C 13.6 g/m*3 17 C 0 km/h
514 11-06-2010 06:43:29 17 C 13.6 g/m*3 17 C 0 km/h
515 11-06-2010 06:55:29 16.9 C 13.66 g/m*3 16.9 C 0 km/h
516 11-06-2010 07:07:29 16.9 C 13.66 g/m*3 16.9 C 0 km/h
517 11-06-2010 07:19:01 16.9 C 13.66 g/m*3 16.9 C 0 km/h
518 11-06-2010 07:31:32 16.9 C 13.66 g/m*3 16.9 C 0 km/h
519 11-06-2010 07:44:01 16.8 C 13.58 g/m*3 16.8 C 0 km/h
520 11-06-2010 07:55:02 16.9 C 13.66 g/m*3 16.9 C 0 km/h
521 11-06-2010 08:08:01 16.6 C 13.28 g/m*3 16.6 C 0 km/h
522 11-06-2010 08:19:01 16.8 C 13.3 g/m*3 16.8 C 0 km/h
523 11-06-2010 08:31:02 16.9 C 13.09 g/m*3 16.9 C 0 km/h
524 11-06-2010 08:43:02 17.3 C 13.11 g/m*3 17.3 C 0 km/h
525 11-06-2010 08:55:01 17.6 C 13.35 g/m*3 17.6 C 0 km/h
Sensor: Nr:Datum:Temp:Abs-Feuchte:Windchill:Wind:
Aussen-T/F 526 11-06-2010 09:07:02 18.1 C 13.44 g/m*3 18.1 C 0 km/h
527 11-06-2010 09:20:01 19 C 14.01 g/m*3 19 C 0 km/h
528 11-06-2010 09:31:01 20 C 14.34 g/m*3 20 C 0 km/h
529 11-06-2010 09:43:01 19.8 C 13.84 g/m*3 19.8 C 0 km/h
530 11-06-2010 09:56:01 19.7 C 12.57 g/m*3 19.7 C 0 km/h
531 11-06-2010 10:07:02 20 C 12.27 g/m*3 20 C 0 km/h
532 11-06-2010 10:20:01 20.3 C 11.78 g/m*3 20.3 C 0 km/h
533 11-06-2010 10:32:01 20.7 C 11.52 g/m*3 20.7 C 0 km/h
534 11-06-2010 10:44:01 21.1 C 11.61 g/m*3 21.1 C 0 km/h
535 11-06-2010 10:56:01 21.4 C 11.62 g/m*3 21.4 C 0 km/h
536 11-06-2010 11:07:01 21.8 C 11.13 g/m*3 21.8 C 0 km/h
537 11-06-2010 11:19:02 22.3 C 11.06 g/m*3 22.3 C 0 km/h
538 11-06-2010 11:32:01 22.6 C 10.85 g/m*3 22.6 C 0 km/h
539 11-06-2010 11:44:01 23.2 C 10.6 g/m*3 23.2 C 0 km/h
540 11-06-2010 11:56:01 23.9 C 10.38 g/m*3 23.9 C 0 km/h
541 11-06-2010 12:08:01 24 C 9.36 g/m*3 24 C 0 km/h
542 11-06-2010 12:19:02 25.4 C 9.18 g/m*3 25.4 C 0 km/h
543 11-06-2010 12:32:01 26.2 C 8.62 g/m*3 26.2 C 0 km/h
544 11-06-2010 12:44:01 25.9 C 8.23 g/m*3 25.9 C 0 km/h
545 11-06-2010 12:55:02 26.7 C 7.85 g/m*3 26.7 C 0 km/h
546 11-06-2010 13:08:01 27.2 C 8.07 g/m*3 27.2 C 0 km/h
547 11-06-2010 13:20:01 27.5 C 7.41 g/m*3 27.5 C 0 km/h
548 11-06-2010 13:31:02 27.8 C 7.8 g/m*3 27.8 C 0 km/h
549 11-06-2010 13:43:02 27.5 C 7.41 g/m*3 27.5 C 0 km/h
550 11-06-2010 13:55:01 27.9 C 7.84 g/m*3 27.9 C 0 km/h
Sensor: Nr:Datum:Temp:Abs-Feuchte:Windchill:Wind:
Aussen-T/F 551 11-06-2010 14:08:01 27.3 C 7.85 g/m*3 27.3 C 0 km/h
552 11-06-2010 14:20:01 26.9 C 7.68 g/m*3 26.9 C 0 km/h
553 11-06-2010 14:31:02 26.7 C 7.59 g/m*3 26.7 C 0 km/h
554 11-06-2010 14:43:02 27.1 C 7.25 g/m*3 27.1 C 0 km/h
555 11-06-2010 14:56:01 27.6 C 7.71 g/m*3 27.6 C 0 km/h
556 11-06-2010 15:07:02 28 C 7.34 g/m*3 28 C 0 km/h
557 11-06-2010 15:20:01 28.1 C 7.11 g/m*3 28.1 C 0 km/h
558 11-06-2010 15:32:01 28.7 C 7.63 g/m*3 28.7 C 0 km/h
559 11-06-2010 15:44:02 29.1 C 7.22 g/m*3 29.1 C 0 km/h
560 11-06-2010 15:56:01 29.5 C 7.38 g/m*3 29.5 C 0 km/h
561 11-06-2010 16:07:02 29.8 C 7.2 g/m*3 29.8 C 0 km/h
562 11-06-2010 16:20:01 29.7 C 6.86 g/m*3 29.7 C 0 km/h
563 11-06-2010 16:32:01 29.9 C 6.64 g/m*3 29.9 C 0 km/h
564 11-06-2010 16:44:01 30.1 C 7.01 g/m*3 30.1 C 0 km/h
565 11-06-2010 16:56:01 30.1 C 6.71 g/m*3 30.1 C 0 km/h
566 11-06-2010 17:07:02 30 C 6.37 g/m*3 30 C 0 km/h
567 11-06-2010 17:20:01 30.6 C 6.26 g/m*3 30.6 C 0 km/h
568 11-06-2010 17:32:01 30.6 C 6.26 g/m*3 30.6 C 0 km/h
569 11-06-2010 17:44:01 30.7 C 6.3 g/m*3 30.7 C 0 km/h
570 11-06-2010 17:56:01 31 C 6.4 g/m*3 31 C 0 km/h
571 11-06-2010 18:08:02 31 C 6.4 g/m*3 31 C 0 km/h
572 11-06-2010 18:20:01 31 C 6.4 g/m*3 31 C 0 km/h
573 11-06-2010 18:32:01 30.6 C 6.26 g/m*3 30.6 C 0 km/h
574 11-06-2010 18:44:01 30.6 C 6.26 g/m*3 30.6 C 0 km/h
575 11-06-2010 18:56:01 30.5 C 6.23 g/m*3 30.5 C 0 km/h
Sensor: Nr:Datum:Temp:Abs-Feuchte:Windchill:Wind:
Aussen-T/F 576 11-06-2010 19:08:01 30.6 C 6.26 g/m*3 30.6 C 0 km/h
577 11-06-2010 19:19:02 31 C 6.4 g/m*3 31 C 0 km/h
578 11-06-2010 19:32:01 31 C 6.4 g/m*3 31 C 0 km/h
579 11-06-2010 19:44:01 30.6 C 6.26 g/m*3 30.6 C 0 km/h
580 11-06-2010 19:56:01 30.3 C 7.09 g/m*3 30.3 C 0 km/h
581 11-06-2010 20:08:01 30 C 6.97 g/m*3 30 C 0 km/h
582 11-06-2010 20:20:02 29.5 C 7.08 g/m*3 29.5 C 0 km/h
583 11-06-2010 20:32:01 27.9 C 7.03 g/m*3 27.9 C 0 km/h
584 11-06-2010 20:44:01 27 C 7.46 g/m*3 27 C 0 km/h
585 11-06-2010 20:56:02 26 C 7.55 g/m*3 26 C 0 km/h
586 11-06-2010 21:08:01 25 C 7.83 g/m*3 25 C 0 km/h
587 11-06-2010 21:20:01 24.7 C 8.6 g/m*3 24.7 C 0 km/h
588 11-06-2010 21:32:01 24.3 C 8.85 g/m*3 24.3 C 0 km/h
589 11-06-2010 21:44:01 24.2 C 8.58 g/m*3 24.2 C 0 km/h
590 11-06-2010 21:56:02 24.2 C 8.58 g/m*3 24.2 C 0 km/h
591 11-06-2010 22:08:02 24 C 8.05 g/m*3 24 C 0 km/h
592 11-06-2010 22:20:01 24 C 8.27 g/m*3 24 C 0 km/h
593 11-06-2010 22:32:01 23.4 C 8.41 g/m*3 23.4 C 0 km/h
594 11-06-2010 22:44:01 23.2 C 7.9 g/m*3 23.2 C 0 km/h
595 11-06-2010 22:56:01 23.1 C 7.65 g/m*3 23.1 C 0 km/h
596 11-06-2010 23:08:02 23 C 7.4 g/m*3 23 C 0 km/h
597 11-06-2010 23:20:01 23 C 7.6 g/m*3 23 C 0 km/h
598 11-06-2010 23:32:01 23 C 7.6 g/m*3 23 C 0 km/h
599 11-06-2010 23:44:01 22.8 C 7.72 g/m*3 22.8 C 0 km/h
600 11-06-2010 23:56:01 22.5 C 7.99 g/m*3 22.5 C 0 km/h
Sensor: Nr:Datum:Temp:Abs-Feuchte:Windchill:Wind:
Aussen-T/F 601 12-06-2010 00:08:01 22.2 C 8.05 g/m*3 22.2 C 0 km/h
602 12-06-2010 00:20:01 22.1 C 8.78 g/m*3 22.1 C 0 km/h
603 12-06-2010 00:32:01 21.9 C 9.07 g/m*3 21.9 C 0 km/h
604 12-06-2010 00:44:01 21.8 C 9.02 g/m*3 21.8 C 0 km/h
605 12-06-2010 00:56:01 21.5 C 9.43 g/m*3 21.5 C 0 km/h
606 12-06-2010 01:08:01 21.2 C 9.64 g/m*3 21.2 C 0 km/h
607 12-06-2010 01:20:01 21.2 C 9.82 g/m*3 21.2 C 0 km/h
608 12-06-2010 01:32:01 20.8 C 9.78 g/m*3 20.8 C 0 km/h
609 12-06-2010 01:44:01 20.7 C 9.72 g/m*3 20.7 C 0 km/h
610 12-06-2010 01:56:01 20.8 C 9.96 g/m*3 20.8 C 0 km/h
611 12-06-2010 02:08:01 20.5 C 9.79 g/m*3 20.5 C 0 km/h
612 12-06-2010 02:20:02 20.2 C 9.97 g/m*3 20.2 C 0 km/h
613 12-06-2010 02:32:01 20.3 C 10.2 g/m*3 20.3 C 0 km/h
614 12-06-2010 02:44:01 20.1 C 9.91 g/m*3 20.1 C 0 km/h
615 12-06-2010 02:56:03 20.1 C 10.08 g/m*3 20.1 C 0 km/h
616 12-06-2010 03:08:03 20 C 9.85 g/m*3 20 C 0 km/h
617 12-06-2010 03:20:03 19.8 C 10.08 g/m*3 19.8 C 0 km/h
618 12-06-2010 03:32:02 19.7 C 10.19 g/m*3 19.7 C 0 km/h
619 12-06-2010 03:44:02 19.6 C 10.3 g/m*3 19.6 C 0 km/h
620 12-06-2010 03:56:02 19.6 C 10.3 g/m*3 19.6 C 0 km/h
621 12-06-2010 04:08:02 19.4 C 10.18 g/m*3 19.4 C 0 km/h
622 12-06-2010 04:20:01 19.4 C 10.34 g/m*3 19.4 C 0 km/h
623 12-06-2010 04:32:02 19.4 C 10.68 g/m*3 19.4 C 0 km/h
624 12-06-2010 04:44:02 19.3 C 10.62 g/m*3 19.3 C 0 km/h
625 12-06-2010 04:56:02 19.1 C 10.98 g/m*3 19.1 C 0 km/h
Sensor: Nr:Datum:Temp:Abs-Feuchte:Windchill:Wind:
Aussen-T/F 626 12-06-2010 05:08:02 18.7 C 11.21 g/m*3 18.7 C 0 km/h
627 12-06-2010 05:20:01 18.8 C 11.27 g/m*3 18.8 C 0 km/h
628 12-06-2010 05:32:02 18.7 C 11.21 g/m*3 18.7 C 0 km/h
629 12-06-2010 05:44:02 18.7 C 11.05 g/m*3 18.7 C 0 km/h
630 12-06-2010 05:56:02 18.7 C 10.89 g/m*3 18.7 C 0 km/h
631 12-06-2010 06:08:02 18.6 C 10.66 g/m*3 18.6 C 0 km/h
632 12-06-2010 06:20:02 18.7 C 10.89 g/m*3 18.7 C 0 km/h
633 12-06-2010 06:32:02 18.9 C 11.02 g/m*3 18.9 C 0 km/h
634 12-06-2010 06:44:02 18.4 C 11.32 g/m*3 18.4 C 0 km/h
635 12-06-2010 06:56:02 18.3 C 11.88 g/m*3 18.3 C 0 km/h
636 12-06-2010 07:08:02 18.3 C 12.2 g/m*3 18.3 C 0 km/h
637 12-06-2010 07:20:02 18.2 C 11.97 g/m*3 18.2 C 0 km/h
638 12-06-2010 07:32:01 18.5 C 12.18 g/m*3 18.5 C 0 km/h
639 12-06-2010 07:44:01 18.3 C 12.04 g/m*3 18.3 C 0 km/h
640 12-06-2010 07:56:02 18.6 C 12.41 g/m*3 18.6 C 0 km/h
641 12-06-2010 08:08:01 18.6 C 12.41 g/m*3 18.6 C 0 km/h
642 12-06-2010 08:20:02 18.5 C 12.18 g/m*3 18.5 C 0 km/h
643 12-06-2010 08:32:01 18.9 C 12.64 g/m*3 18.9 C 0 km/h
644 12-06-2010 08:44:01 18.6 C 12.41 g/m*3 18.6 C 0 km/h
645 12-06-2010 08:56:02 19.3 C 12.44 g/m*3 19.3 C 0 km/h
646 12-06-2010 09:08:02 19.1 C 12.13 g/m*3 19.1 C 0 km/h
647 12-06-2010 09:20:02 19.1 C 11.97 g/m*3 19.1 C 0 km/h
648 12-06-2010 09:32:02 19 C 11.57 g/m*3 19 C 0 km/h
649 12-06-2010 09:44:02 19.6 C 11.31 g/m*3 19.6 C 0 km/h
650 12-06-2010 09:56:02 19.6 C 10.97 g/m*3 19.6 C 0 km/h
Sensor: Nr:Datum:Temp:Abs-Feuchte:Windchill:Wind:
Aussen-T/F 651 12-06-2010 10:08:01 20 C 10.89 g/m*3 20 C 0 km/h
652 12-06-2010 10:20:02 19.6 C 10.3 g/m*3 19.6 C 0 km/h
653 12-06-2010 10:32:02 20.3 C 10.55 g/m*3 20.3 C 0 km/h
654 12-06-2010 10:44:02 20.5 C 10.14 g/m*3 20.5 C 0 km/h
655 12-06-2010 10:56:02 21.3 C 10.25 g/m*3 21.3 C 0 km/h
656 12-06-2010 11:08:02 21.2 C 10.19 g/m*3 21.2 C 0 km/h
657 12-06-2010 11:20:02 22.1 C 9.96 g/m*3 22.1 C 0 km/h
658 12-06-2010 11:32:02 22.8 C 9.35 g/m*3 22.8 C 0 km/h
659 12-06-2010 11:44:03 23.2 C 9.36 g/m*3 23.2 C 0 km/h
660 12-06-2010 11:56:02 22.9 C 8.99 g/m*3 22.9 C 0 km/h
661 12-06-2010 12:08:01 23 C 8.43 g/m*3 23 C 0 km/h
662 12-06-2010 12:20:01 23.6 C 8.51 g/m*3 23.6 C 0 km/h
663 12-06-2010 12:32:02 23.6 C 8.72 g/m*3 23.6 C 0 km/h
664 12-06-2010 12:44:02 22.9 C 8.99 g/m*3 22.9 C 0 km/h
665 12-06-2010 12:56:02 23.4 C 8.83 g/m*3 23.4 C 0 km/h
666 12-06-2010 13:08:01 25.2 C 8.38 g/m*3 25.2 C 0 km/h
667 12-06-2010 13:20:02 23.8 C 8.82 g/m*3 23.8 C 0 km/h
668 12-06-2010 13:32:02 24.4 C 8.23 g/m*3 24.4 C 0 km/h
669 12-06-2010 13:44:02 23.2 C 8.52 g/m*3 23.2 C 0 km/h
670 12-06-2010 13:56:02 24.2 C 8.36 g/m*3 24.2 C 0 km/h
671 12-06-2010 14:08:01 24.6 C 8.33 g/m*3 24.6 C 0 km/h
672 12-06-2010 14:20:01 24 C 8.27 g/m*3 24 C 0 km/h
673 12-06-2010 14:32:02 23.9 C 8.65 g/m*3 23.9 C 0 km/h
674 12-06-2010 14:44:02 24 C 8.49 g/m*3 24 C 0 km/h
675 12-06-2010 14:56:02 25.9 C 8.47 g/m*3 25.9 C 0 km/h
Sensor: Nr:Datum:Temp:Abs-Feuchte:Windchill:Wind:
Aussen-T/F 676 12-06-2010 15:08:02 25.2 C 8.15 g/m*3 25.2 C 0 km/h
677 12-06-2010 15:20:02 24.8 C 8.19 g/m*3 24.8 C 0 km/h
678 12-06-2010 15:32:02 23.9 C 8.87 g/m*3 23.9 C 0 km/h
679 12-06-2010 15:44:02 21.8 C 9.98 g/m*3 21.8 C 0 km/h
680 12-06-2010 15:56:02 19.2 C 10.06 g/m*3 19.2 C 0 km/h
681 12-06-2010 16:08:03 18.9 C 10.37 g/m*3 18.9 C 0 km/h
682 12-06-2010 16:20:02 17.9 C 9.92 g/m*3 17.9 C 0 km/h
683 12-06-2010 16:32:02 17.4 C 10.37 g/m*3 17.4 C 0 km/h
684 12-06-2010 16:44:02 15.9 C 10.16 g/m*3 15.9 C 0 km/h
685 12-06-2010 16:56:01 15.1 C 10.19 g/m*3 15.1 C 0 km/h
686 12-06-2010 17:08:02 15.2 C 10.51 g/m*3 15.2 C 0 km/h
687 12-06-2010 17:20:01 14.2 C 9.65 g/m*3 14.2 C 0 km/h
688 12-06-2010 17:32:01 13.7 C 9.47 g/m*3 13.7 C 0 km/h
689 12-06-2010 17:44:01 13.6 C 9.53 g/m*3 13.6 C 0 km/h
690 12-06-2010 17:56:01 14.4 C 10.14 g/m*3 14.4 C 0 km/h
691 12-06-2010 18:08:02 14.7 C 10.32 g/m*3 14.7 C 0 km/h
692 12-06-2010 18:20:02 14.6 C 10.01 g/m*3 14.6 C 0 km/h
693 12-06-2010 18:32:01 14.8 C 10.26 g/m*3 14.8 C 0 km/h
694 12-06-2010 18:44:01 14.4 C 9.89 g/m*3 14.4 C 0 km/h
695 12-06-2010 18:56:01 14.6 C 10.14 g/m*3 14.6 C 0 km/h
696 12-06-2010 19:08:01 14.6 C 9.89 g/m*3 14.6 C 0 km/h
697 12-06-2010 19:20:02 14.4 C 9.64 g/m*3 14.4 C 0 km/h
698 12-06-2010 19:32:01 14.7 C 9.69 g/m*3 14.7 C 0 km/h
699 12-06-2010 19:44:01 15 C 9.75 g/m*3 15 C 0 km/h
700 12-06-2010 19:56:02 15.4 C 9.99 g/m*3 15.4 C 0 km/h
Sensor: Nr:Datum:Temp:Abs-Feuchte:Windchill:Wind:
Aussen-T/F 701 12-06-2010 20:08:01 15.3 C 9.66 g/m*3 15.3 C 0 km/h
702 12-06-2010 20:20:02 15.3 C 9.53 g/m*3 15.3 C 0 km/h
703 12-06-2010 20:32:01 15.3 C 9.53 g/m*3 15.3 C 0 km/h
704 12-06-2010 20:44:01 15.4 C 9.46 g/m*3 15.4 C 0 km/h
705 12-06-2010 20:56:02 15.4 C 9.46 g/m*3 15.4 C 0 km/h
706 12-06-2010 21:08:02 15.2 C 9.35 g/m*3 15.2 C 0 km/h
707 12-06-2010 21:20:02 15.1 C 9.29 g/m*3 15.1 C 0 km/h
708 12-06-2010 21:32:02 15 C 9.36 g/m*3 15 C 0 km/h
709 12-06-2010 21:44:02 14.9 C 9.56 g/m*3 14.9 C 0 km/h
710 12-06-2010 21:56:02 14.7 C 9.44 g/m*3 14.7 C 0 km/h
711 12-06-2010 22:08:01 14.7 C 9.44 g/m*3 14.7 C 0 km/h
712 12-06-2010 22:20:02 14.7 C 9.57 g/m*3 14.7 C 0 km/h
713 12-06-2010 22:32:01 14.6 C 9.51 g/m*3 14.6 C 0 km/h
714 12-06-2010 22:44:01 14.4 C 9.39 g/m*3 14.4 C 0 km/h
715 12-06-2010 22:56:02 14.1 C 9.22 g/m*3 14.1 C 0 km/h
716 12-06-2010 23:09:03 13.6 C 9.06 g/m*3 13.6 C 0 km/h
717 12-06-2010 23:21:03 13.4 C 9.07 g/m*3 13.4 C 0 km/h
718 12-06-2010 23:33:03 13.2 C 8.96 g/m*3 13.2 C 0 km/h
719 12-06-2010 23:45:03 13.2 C 8.96 g/m*3 13.2 C 0 km/h
720 12-06-2010 23:57:03 13 C 8.85 g/m*3 13 C 0 km/h
721 13-06-2010 00:09:03 12.8 C 8.85 g/m*3 12.8 C 0 km/h
722 13-06-2010 00:21:03 12.6 C 8.85 g/m*3 12.6 C 0 km/h
723 13-06-2010 00:33:03 12.6 C 8.85 g/m*3 12.6 C 0 km/h
724 13-06-2010 00:45:03 12.6 C 8.96 g/m*3 12.6 C 0 km/h
725 13-06-2010 00:57:03 12.8 C 9.07 g/m*3 12.8 C 0 km/h
Sensor: Nr:Datum:Temp:Abs-Feuchte:Windchill:Wind:
Aussen-T/F 726 13-06-2010 01:09:03 13.1 C 9.24 g/m*3 13.1 C 0 km/h
727 13-06-2010 01:21:03 13.3 C 9.47 g/m*3 13.3 C 0 km/h
728 13-06-2010 01:33:03 13.4 C 9.53 g/m*3 13.4 C 0 km/h
729 13-06-2010 01:45:04 13.4 C 9.42 g/m*3 13.4 C 0 km/h
730 13-06-2010 01:57:04 13.3 C 9.36 g/m*3 13.3 C 0 km/h
731 13-06-2010 02:09:04 13.5 C 9.59 g/m*3 13.5 C 0 km/h
732 13-06-2010 02:21:04 13.3 C 9.47 g/m*3 13.3 C 0 km/h
733 13-06-2010 02:33:04 13.2 C 9.42 g/m*3 13.2 C 0 km/h
734 13-06-2010 02:45:04 13 C 9.41 g/m*3 13 C 0 km/h
735 13-06-2010 02:57:04 12.7 C 9.46 g/m*3 12.7 C 0 km/h
736 13-06-2010 03:09:04 12.5 C 9.46 g/m*3 12.5 C 0 km/h
737 13-06-2010 03:21:04 12.4 C 9.4 g/m*3 12.4 C 0 km/h
738 13-06-2010 03:33:04 12.2 C 9.28 g/m*3 12.2 C 0 km/h
739 13-06-2010 03:45:04 11.9 C 9.21 g/m*3 11.9 C 0 km/h
740 13-06-2010 03:57:04 11.8 C 9.16 g/m*3 11.8 C 0 km/h
741 13-06-2010 04:09:04 11.5 C 8.99 g/m*3 11.5 C 0 km/h
742 13-06-2010 04:21:04 11.4 C 8.83 g/m*3 11.4 C 0 km/h
743 13-06-2010 04:33:04 11.4 C 8.72 g/m*3 11.4 C 0 km/h
744 13-06-2010 04:45:04 11.2 C 8.51 g/m*3 11.2 C 0 km/h
745 13-06-2010 04:57:04 11.1 C 8.46 g/m*3 11.1 C 0 km/h
746 13-06-2010 05:09:04 11 C 8.51 g/m*3 11 C 0 km/h
747 13-06-2010 05:21:04 11 C 8.41 g/m*3 11 C 0 km/h
748 13-06-2010 05:33:04 10.8 C 8.3 g/m*3 10.8 C 0 km/h
749 13-06-2010 05:45:04 10.7 C 8.25 g/m*3 10.7 C 0 km/h
750 13-06-2010 05:57:04 10.6 C 8.2 g/m*3 10.6 C 0 km/h
Sensor: Nr:Datum:Temp:Abs-Feuchte:Windchill:Wind:
Aussen-T/F 751 13-06-2010 06:09:05 10.5 C 8.15 g/m*3 10.5 C 0 km/h
752 13-06-2010 06:21:05 10.5 C 8.24 g/m*3 10.5 C 0 km/h
753 13-06-2010 06:33:05 10.5 C 8.24 g/m*3 10.5 C 0 km/h
754 13-06-2010 06:45:05 10.5 C 8.24 g/m*3 10.5 C 0 km/h
755 13-06-2010 06:57:05 10.5 C 8.24 g/m*3 10.5 C 0 km/h
756 13-06-2010 07:09:05 10.7 C 8.45 g/m*3 10.7 C 0 km/h
757 13-06-2010 07:21:05 11 C 8.61 g/m*3 11 C 0 km/h
758 13-06-2010 07:33:05 11.4 C 8.72 g/m*3 11.4 C 0 km/h
759 13-06-2010 07:45:02 11.7 C 8.79 g/m*3 11.7 C 0 km/h
760 13-06-2010 07:57:02 12.1 C 8.69 g/m*3 12.1 C 0 km/h
761 13-06-2010 08:09:02 12.6 C 8.63 g/m*3 12.6 C 0 km/h
762 13-06-2010 08:21:02 12.8 C 8.29 g/m*3 12.8 C 0 km/h
763 13-06-2010 08:33:02 13.2 C 7.92 g/m*3 13.2 C 0 km/h
764 13-06-2010 08:45:02 13.5 C 7.95 g/m*3 13.5 C 0 km/h
765 13-06-2010 08:57:02 13.7 C 8.05 g/m*3 13.7 C 0 km/h
766 13-06-2010 09:09:01 14.1 C 8.01 g/m*3 14.1 C 0 km/h
767 13-06-2010 09:21:02 15 C 7.95 g/m*3 15 C 0 km/h
768 13-06-2010 09:33:02 15.7 C 7.76 g/m*3 15.7 C 0 km/h
769 13-06-2010 09:45:02 16.7 C 7.39 g/m*3 16.7 C 0 km/h
770 13-06-2010 09:57:02 17.7 C 6.79 g/m*3 17.7 C 0 km/h
771 13-06-2010 10:09:02 18.9 C 6.48 g/m*3 18.9 C 0 km/h
772 13-06-2010 10:21:02 19.5 C 6.38 g/m*3 19.5 C 0 km/h
773 13-06-2010 10:33:02 16.8 C 6.43 g/m*3 16.8 C 0 km/h
774 13-06-2010 10:45:02 16.2 C 5.79 g/m*3 16.2 C 0 km/h
775 13-06-2010 10:57:02 17.4 C 6.37 g/m*3 17.4 C 0 km/h
Sensor: Nr:Datum:Temp:Abs-Feuchte:Windchill:Wind:
Aussen-T/F 776 13-06-2010 11:09:02 18.5 C 5.85 g/m*3 18.5 C 0 km/h
777 13-06-2010 11:21:02 19 C 5.87 g/m*3 19 C 0 km/h
778 13-06-2010 11:33:02 19.5 C 6.04 g/m*3 19.5 C 0 km/h
779 13-06-2010 11:45:02 19.8 C 5.64 g/m*3 19.8 C 0 km/h
780 13-06-2010 11:57:02 20.9 C 6.19 g/m*3 20.9 C 0 km/h
781 13-06-2010 12:09:02 21.3 C 5.59 g/m*3 21.3 C 0 km/h
782 13-06-2010 12:21:02 22.4 C 5.36 g/m*3 22.4 C 0 km/h
783 13-06-2010 12:33:02 23.8 C 5.38 g/m*3 23.8 C 0 km/h
784 13-06-2010 12:45:02 23.1 C 5.17 g/m*3 23.1 C 0 km/h
785 13-06-2010 12:57:02 23.6 C 4.89 g/m*3 23.6 C 0 km/h
786 13-06-2010 13:09:02 23.4 C 5.47 g/m*3 23.4 C 0 km/h
787 13-06-2010 13:21:02 24.9 C 4.81 g/m*3 24.9 C 0 km/h
788 13-06-2010 13:33:02 25.4 C 4.71 g/m*3 25.4 C 0 km/h
789 13-06-2010 13:45:02 25.1 C 4.63 g/m*3 25.1 C 0 km/h
790 13-06-2010 13:57:02 25.2 C 4.66 g/m*3 25.2 C 0 km/h
791 13-06-2010 14:09:02 24.8 C 4.78 g/m*3 24.8 C 0 km/h
792 13-06-2010 14:21:02 24.8 C 5.01 g/m*3 24.8 C 0 km/h
793 13-06-2010 14:33:01 23.9 C 4.98 g/m*3 23.9 C 0 km/h
794 13-06-2010 14:45:02 22.6 C 4.62 g/m*3 22.6 C 0 km/h
795 13-06-2010 14:57:02 24.5 C 5.15 g/m*3 24.5 C 0 km/h
796 13-06-2010 15:09:01 25.1 C 5.32 g/m*3 25.1 C 0 km/h
797 13-06-2010 15:21:02 25.8 C 5.06 g/m*3 25.8 C 0 km/h
798 13-06-2010 15:33:01 24.1 C 4.38 g/m*3 24.1 C 0 km/h
799 13-06-2010 15:45:02 24.3 C 4.43 g/m*3 24.3 C 0 km/h
800 13-06-2010 15:57:02 23.8 C 4.3 g/m*3 23.8 C 0 km/h
Sensor: Nr:Datum:Temp:Abs-Feuchte:Windchill:Wind:
Aussen-T/F 801 13-06-2010 16:09:02 24.3 C 4.43 g/m*3 24.3 C 0 km/h
802 13-06-2010 16:21:02 24.6 C 4.5 g/m*3 24.6 C 0 km/h
803 13-06-2010 16:33:02 24.2 C 4.4 g/m*3 24.2 C 0 km/h
804 13-06-2010 16:45:02 26 C 4.87 g/m*3 26 C 0 km/h
805 13-06-2010 16:57:02 26 C 4.87 g/m*3 26 C 0 km/h
806 13-06-2010 17:09:01 26.1 C 4.9 g/m*3 26.1 C 0 km/h
807 13-06-2010 17:21:02 26.3 C 4.95 g/m*3 26.3 C 0 km/h
808 13-06-2010 17:33:02 26 C 4.87 g/m*3 26 C 0 km/h
809 13-06-2010 17:45:02 26.5 C 5.01 g/m*3 26.5 C 0 km/h
810 13-06-2010 17:57:02 25.4 C 4.71 g/m*3 25.4 C 0 km/h
811 13-06-2010 18:09:02 26.5 C 5.01 g/m*3 26.5 C 0 km/h
812 13-06-2010 18:21:02 27.1 C 5.18 g/m*3 27.1 C 0 km/h
813 13-06-2010 18:33:02 25.8 C 4.82 g/m*3 25.8 C 0 km/h
814 13-06-2010 18:45:01 26.5 C 5.01 g/m*3 26.5 C 0 km/h
815 13-06-2010 18:57:01 26.3 C 4.95 g/m*3 26.3 C 0 km/h
816 13-06-2010 19:09:02 26.3 C 4.95 g/m*3 26.3 C 0 km/h
817 13-06-2010 19:21:01 25.9 C 4.84 g/m*3 25.9 C 0 km/h
818 13-06-2010 19:33:01 25.4 C 4.71 g/m*3 25.4 C 0 km/h
819 13-06-2010 19:45:01 24.1 C 4.38 g/m*3 24.1 C 0 km/h
820 13-06-2010 19:57:01 23.6 C 5.32 g/m*3 23.6 C 0 km/h
821 13-06-2010 20:09:02 24.1 C 4.81 g/m*3 24.1 C 0 km/h
822 13-06-2010 20:21:01 24.7 C 5.21 g/m*3 24.7 C 0 km/h
823 13-06-2010 20:33:01 24.5 C 4.92 g/m*3 24.5 C 0 km/h
824 13-06-2010 20:45:01 23.4 C 5.05 g/m*3 23.4 C 0 km/h
825 13-06-2010 20:57:01 22.8 C 6.1 g/m*3 22.8 C 0 km/h
Sensor: Nr:Datum:Temp:Abs-Feuchte:Windchill:Wind:
Aussen-T/F 826 13-06-2010 21:09:02 21.8 C 6.33 g/m*3 21.8 C 0 km/h
827 13-06-2010 21:21:01 20.6 C 6.44 g/m*3 20.6 C 0 km/h
828 13-06-2010 21:33:01 19.3 C 6.3 g/m*3 19.3 C 0 km/h
829 13-06-2010 21:45:02 18.6 C 6.37 g/m*3 18.6 C 0 km/h
830 13-06-2010 21:57:02 17.9 C 6.26 g/m*3 17.9 C 0 km/h
831 13-06-2010 22:09:02 18.1 C 6.33 g/m*3 18.1 C 0 km/h
832 13-06-2010 22:21:02 18.1 C 6.18 g/m*3 18.1 C 0 km/h
833 13-06-2010 22:34:02 17.7 C 6.49 g/m*3 17.7 C 0 km/h
834 13-06-2010 22:46:02 17.3 C 6.63 g/m*3 17.3 C 0 km/h
835 13-06-2010 22:58:02 17 C 6.66 g/m*3 17 C 0 km/h
836 13-06-2010 23:10:02 16.7 C 6.68 g/m*3 16.7 C 0 km/h
837 13-06-2010 23:22:02 16.6 C 6.92 g/m*3 16.6 C 0 km/h
838 13-06-2010 23:34:02 16.2 C 6.9 g/m*3 16.2 C 0 km/h
839 13-06-2010 23:46:02 16 C 7.08 g/m*3 16 C 0 km/h
840 13-06-2010 23:58:02 15.9 C 7.04 g/m*3 15.9 C 0 km/h

Legende:
   Min
   Max


Maximal/Minimal-Werte vom 07.06.2010 - 13.06.2010

Sensor Min Max Avg
Temp
(Aussen-T/F)
10.5 °C
13-06-2010  06:09:05
31.7 °C
10-06-2010  19:07:02
20.67 °C
Abs-Feuchte
(Aussen-T/F)
4.3 g/m*3
13-06-2010  15:57:02
14.76 g/m*3
10-06-2010  10:07:02
9.69 g/m*3
Windchill
(Aussen-T/F)
10.5 C
13-06-2010  06:09:05
31.7 C
10-06-2010  19:07:02
20.64 C

Die Daten stammen von einer Davis Vantage Pro 2 Wetter-Station und werden unter Linux mit der Software wview2wettercgi und aufbereitet. Alle Angaben erfolgen ohne Gewähr für ihre Vollständigkeit oder Richtigkeit.
Kontakt: Rainer Krienke krienke@uni-koblenz.de . Meine Webseiten an der Uni Koblenz oder privat.
Version: $Revision: 0.78 $